Derby, Western Australia

2:41 AM WST on August 30, 2014 (GMT +0800)
Derby | Change Station
CLOSE
Current Station
Airport
Location: DERBY,
Elevation: 23 ft
Nearby Weather Stations

Elev 23 ft 17.37 °S, 123.66 °E | Updated 41 minutes ago

Clear
Clear
55 °F
Feels Like 55 °F
N
5
Wind Variable Wind from South
Gusts mph

Today
High -- | Low -- °F
--% Chance of Precip.
Yesterday
High -- | Low -- °F
Precip. -- in
5:54 AM 5:38 PM
Waxing Crescent, 16% visible
Pressure 29.98 in
Visibility -9999.0 miles
Clouds
Dew Point 43 °F
Humidity 63%
Rainfall 0.00 in
Snow Depth Not available.
UV Not available.
Pollen Not available.
Air Quality Not available.
Flu Activity Not available.
METAR YDBY 291800Z AUTO 18004KT //// // ////// 13/06 Q1015

More Conditions Fewer Conditions

Pressure 29.98 in
Visibility -9999.0 miles
Clouds
Dew Point 43 °F
Humidity 63%
Rainfall 0.00 in
Snow Depth Not available.
UV Not available.
Pollen Not available.
Air Quality Not available.
Flu Activity Not available.
METAR YDBY 291800Z AUTO 18004KT //// // ////// 13/06 Q1015

More Conditions Fewer Conditions

10-Day Weather Forecast

Almanac

Astronomy

Aug. 30, 2014 Rise Set
Actual Time 5:54 AM WST 5:38 PM WST
Civil Twilight 5:32 AM WST 6:00 PM WST
Nautical Twilight 5:06 AM WST 6:25 PM WST
Astronomical Twilight 4:41 AM WST 6:50 PM WST
Moon 8:37 AM WST (8/30) 9:26 PM WST (8/30)
Length of Visible Light 12h 27m
Length of Day
11h 44m
Tomorrow will be 0m 55s longer.
Waxing Crescent, 16% of the Moon is Illuminated
Aug 29
Waxing Crescent
Sep 2
First Quarter
Sep 8
Full
Sep 15
Last Quarter
Sep 24
New

Yesterday's Extremes

Country Highs Country Lows

Community

WunderPhotos

Upload Photos

1,748,314 photos uploaded!

Nearby

Snow Depth

Not available.

Earthquake Activity

City Distance Mag. Time & Date
No recent earthquake activity has been reported nearby.
Minimum magnitude displayed is 2.5.

Coastal Water Temperatures

Place Temperature
No Stations Reporting

Nearby Weather Stations